Afton, Michigan
Current Conditions -  °F | °C
As of 9:37 PM on Saturday 20 Dec 2014 (Local Time) from KSLH Reporting Station
Scattered Clouds Scattered Clouds  
Wind Chill: 15°   Ceiling: Unl
Heat Index: 15°   Visibility: 10mi
Dew Point: 14°   Wind: 0mph
Humidity: 93%   Direction: NA
Pressure: 30.26"   Gusts: NA
Location:  45.36°N, 84.47°W
Report Text: KSLH 210237Z AUTO 00000KT 10SM SCT030 M09/M10 A3026 RMK AO2 T10921101
Loading
Personal Weather Stations






























Interactive Weather Map New forecast layout! Learn more

10-Day Weather Forecast

Advertisements
Track Severe Weather on mobile